createdAt,value
2018-12-09T00:04:32.950Z,5.90
2018-12-09T00:09:39.536Z,4.50
2018-12-09T00:14:44.103Z,5.03
2018-12-09T00:19:48.880Z,3.62
2018-12-09T00:24:53.368Z,7.77
2018-12-09T00:29:57.964Z,4.73
2018-12-09T00:35:02.415Z,3.03
2018-12-09T00:40:07.621Z,4.10
2018-12-09T00:45:15.399Z,5.27
2018-12-09T00:50:21.162Z,5.92
2018-12-09T00:55:25.610Z,3.00
2018-12-09T01:00:30.571Z,7.93
2018-12-09T01:05:35.464Z,4.03
2018-12-09T01:10:40.008Z,2.97
2018-12-09T01:15:44.511Z,3.27
2018-12-09T01:20:49.399Z,4.77
2018-12-09T01:25:53.763Z,2.33
2018-12-09T01:30:58.273Z,2.07
2018-12-09T01:36:03.225Z,4.27
2018-12-09T01:41:08.505Z,3.93
2018-12-09T01:46:16.229Z,2.17
2018-12-09T01:51:21.511Z,3.27
2018-12-09T01:56:26.063Z,2.80
2018-12-09T02:01:31.010Z,0.60
2018-12-09T02:06:35.940Z,1.90
2018-12-09T02:11:40.412Z,2.33
2018-12-09T02:16:45.828Z,2.57
2018-12-09T02:21:51.042Z,0.70
2018-12-09T02:26:56.513Z,2.13
2018-12-09T02:32:01.060Z,0.93
2018-12-09T02:37:05.575Z,1.03
2018-12-09T02:42:10.771Z,1.37
2018-12-09T02:59:23.697Z,0.80
2018-12-09T03:04:28.616Z,1.67
2018-12-09T03:09:33.548Z,1.03
2018-12-09T03:14:38.472Z,1.43
2018-12-09T03:19:43.369Z,3.00
2018-12-09T03:24:47.637Z,3.13
2018-12-09T03:29:52.204Z,1.57
2018-12-09T03:34:57.072Z,2.57
2018-12-09T03:40:02.000Z,0.77
2018-12-09T03:45:07.497Z,2.33
2018-12-09T03:50:12.614Z,0.80
2018-12-09T03:55:17.527Z,2.90
2018-12-09T04:00:21.709Z,0.93
2018-12-09T04:05:26.251Z,1.53
2018-12-09T04:10:31.235Z,1.47
2018-12-09T04:15:42.804Z,5.90
2018-12-09T04:20:50.231Z,3.80
2018-12-09T04:25:54.324Z,1.83
2018-12-09T04:30:58.853Z,2.83
2018-12-09T04:36:03.357Z,2.33
2018-12-09T04:41:08.038Z,5.77
2018-12-09T04:46:13.079Z,2.70
2018-12-09T04:51:18.461Z,3.87
2018-12-09T05:03:15.363Z,3.00
2018-12-09T05:08:20.812Z,5.17
2018-12-09T05:13:29.944Z,1.73
2018-12-09T05:18:34.468Z,2.60
2018-12-09T05:23:38.933Z,5.83
2018-12-09T05:28:43.436Z,3.57
2018-12-09T05:33:47.605Z,2.83
2018-12-09T05:38:52.210Z,6.03
2018-12-09T05:43:56.876Z,4.13
2018-12-09T05:49:00.988Z,2.57
2018-12-09T05:54:05.952Z,3.83
2018-12-09T05:59:11.065Z,2.35
2018-12-09T06:27:51.467Z,2.83
2018-12-09T06:32:56.337Z,4.53
2018-12-09T06:38:00.907Z,3.47
2018-12-09T06:43:05.915Z,3.77
2018-12-09T06:48:10.084Z,2.53
2018-12-09T06:53:15.519Z,4.45
2018-12-09T06:58:19.905Z,2.12
2018-12-09T07:03:24.608Z,2.25
2018-12-09T07:08:28.713Z,4.20
2018-12-09T07:13:33.266Z,4.80
2018-12-09T07:18:37.469Z,3.00
2018-12-09T07:23:42.460Z,3.70
2018-12-09T07:41:21.148Z,5.40
2018-12-09T07:46:25.850Z,2.93
2018-12-09T07:51:30.616Z,8.80
2018-12-09T07:56:35.191Z,5.03
2018-12-09T08:01:39.956Z,5.07
2018-12-09T08:06:44.069Z,4.23
2018-12-09T08:11:48.862Z,7.33
2018-12-09T08:16:53.340Z,9.43
2018-12-09T08:21:58.273Z,8.70
2018-12-09T08:27:03.322Z,7.17
2018-12-09T08:32:07.966Z,9.30
2018-12-09T08:37:12.463Z,4.73
2018-12-09T09:00:55.994Z,2.33
2018-12-09T09:06:00.507Z,2.57
2018-12-09T09:11:05.176Z,1.17
2018-12-09T09:16:10.584Z,3.10
2018-12-09T09:21:15.089Z,1.47
2018-12-09T09:26:19.191Z,1.50
2018-12-09T09:31:23.559Z,2.33
2018-12-09T09:36:28.485Z,1.97
2018-12-09T09:41:32.964Z,1.63
2018-12-09T09:46:37.842Z,1.30
2018-12-09T09:51:42.842Z,3.43
2018-12-09T09:56:47.357Z,2.03
2018-12-09T10:08:29.408Z,2.43
2018-12-09T10:13:42.319Z,1.20
2018-12-09T10:18:47.260Z,2.23
2018-12-09T10:23:52.264Z,2.17
2018-12-09T10:28:56.964Z,2.10
2018-12-09T10:34:01.915Z,1.07
2018-12-09T10:39:08.016Z,3.20
2018-12-09T10:44:12.269Z,3.40
2018-12-09T10:49:16.731Z,1.37
2018-12-09T10:54:21.922Z,1.98
2018-12-09T10:59:26.121Z,1.60
2018-12-09T11:04:32.542Z,3.47
2018-12-09T11:22:49.282Z,2.67
2018-12-09T11:27:53.889Z,2.07
2018-12-09T11:32:58.128Z,3.83
2018-12-09T11:38:03.063Z,1.97
2018-12-09T11:43:07.580Z,2.10
2018-12-09T11:48:12.085Z,1.50
2018-12-09T11:53:17.560Z,3.03
2018-12-09T11:58:22.347Z,2.80
2018-12-09T12:03:27.399Z,3.30
2018-12-09T12:08:32.291Z,4.57
2018-12-09T12:13:36.953Z,2.10
2018-12-09T12:18:41.849Z,3.43
2018-12-09T12:23:49.365Z,5.07
2018-12-09T12:28:54.613Z,3.17
2018-12-09T12:33:59.622Z,3.13
2018-12-09T12:39:06.939Z,3.37
2018-12-09T12:44:11.721Z,1.77
2018-12-09T12:49:16.688Z,3.37
2018-12-09T12:54:21.126Z,2.02
2018-12-09T12:59:25.940Z,3.00
2018-12-09T13:04:30.153Z,6.20
2018-12-09T13:09:35.191Z,2.30
2018-12-09T13:14:39.798Z,3.07
2018-12-09T13:19:44.226Z,2.37
2018-12-09T13:24:48.994Z,5.40
2018-12-09T13:29:53.936Z,1.27
2018-12-09T13:34:58.824Z,3.20
2018-12-09T13:40:04.492Z,2.73
2018-12-09T13:45:09.690Z,3.92
2018-12-09T13:50:15.204Z,2.98
2018-12-09T13:55:20.547Z,4.95
2018-12-09T14:00:25.441Z,2.63
2018-12-09T14:05:32.222Z,3.07
2018-12-09T14:10:36.822Z,2.33
2018-12-09T14:15:41.306Z,3.83
2018-12-09T14:20:45.957Z,1.87
2018-12-09T14:25:50.070Z,2.47
2018-12-09T14:30:54.819Z,3.43
2018-12-09T14:35:59.693Z,4.87
2018-12-09T14:41:05.265Z,5.30
2018-12-09T14:46:09.783Z,2.53
2018-12-09T14:51:14.541Z,3.75
2018-12-09T14:56:19.008Z,2.80
2018-12-09T15:01:24.504Z,4.20
2018-12-09T15:06:29.093Z,2.77
2018-12-09T15:11:33.583Z,3.07
2018-12-09T15:16:38.490Z,5.33
2018-12-09T15:21:42.989Z,4.57
2018-12-09T15:38:51.931Z,8.07
2018-12-09T15:43:56.376Z,4.63
2018-12-09T15:49:01.320Z,4.80
2018-12-09T15:54:06.932Z,5.53
2018-12-09T15:59:11.838Z,4.90
2018-12-09T16:04:16.934Z,4.37
2018-12-09T16:09:22.092Z,2.27
2018-12-09T16:14:27.314Z,4.07
2018-12-09T16:19:31.531Z,6.03
2018-12-09T16:24:35.679Z,7.50
2018-12-09T16:29:39.875Z,3.50
2018-12-09T16:35:08.859Z,2.60
2018-12-09T16:40:13.767Z,2.80
2018-12-09T16:45:18.248Z,4.83
2018-12-09T16:55:30.813Z,5.20
2018-12-09T17:00:35.762Z,3.73
2018-12-09T17:05:40.409Z,5.13
2018-12-09T17:10:44.582Z,6.33
2018-12-09T17:15:49.144Z,5.93
2018-12-09T17:20:54.338Z,4.13
2018-12-09T17:25:58.454Z,4.73
2018-12-09T17:31:02.963Z,3.43
2018-12-09T17:36:07.417Z,6.50
2018-12-09T17:41:11.820Z,6.30
2018-12-09T17:46:16.331Z,2.37
2018-12-09T17:51:21.627Z,2.60
2018-12-09T17:56:26.128Z,4.67
2018-12-09T18:01:30.675Z,2.20
2018-12-09T18:06:35.587Z,2.93
2018-12-09T18:11:40.542Z,3.77
2018-12-09T18:16:45.098Z,4.97
2018-12-09T18:21:50.043Z,5.13
2018-12-09T18:26:55.125Z,5.17
2018-12-09T18:31:59.797Z,4.70
2018-12-09T18:37:05.231Z,4.22
2018-12-09T18:42:09.784Z,6.13
2018-12-09T18:47:14.634Z,3.35
2018-12-09T18:52:22.429Z,7.70
2018-12-09T18:57:26.615Z,5.30
2018-12-09T19:02:30.803Z,5.03
2018-12-09T19:07:35.774Z,6.03
2018-12-09T19:12:40.382Z,6.57
2018-12-09T19:17:45.572Z,9.13
2018-12-09T19:22:50.080Z,5.07
2018-12-09T19:27:54.612Z,9.60
2018-12-09T19:32:59.115Z,10.33
2018-12-09T19:38:04.398Z,14.53
2018-12-09T19:43:09.192Z,10.55
2018-12-09T19:48:14.377Z,8.20
2018-12-09T19:53:20.530Z,11.65
2018-12-09T19:58:32.208Z,11.17
2018-12-09T20:03:36.521Z,19.67
2018-12-09T20:08:41.470Z,9.67
2018-12-09T20:13:45.960Z,12.07
2018-12-09T20:18:50.089Z,10.83
2018-12-09T20:23:54.359Z,12.43
2018-12-09T20:28:59.108Z,11.03
2018-12-09T20:34:05.658Z,12.80
2018-12-09T20:39:10.257Z,8.93
2018-12-09T20:44:14.688Z,11.00
2018-12-09T20:49:19.477Z,8.60
2018-12-09T20:54:24.135Z,12.83
2018-12-09T20:59:56.836Z,7.07
2018-12-09T21:05:00.998Z,12.73
2018-12-09T21:10:07.283Z,10.60
2018-12-09T21:15:12.475Z,10.73
2018-12-09T21:20:17.013Z,6.50
2018-12-09T21:25:21.181Z,11.57
2018-12-09T21:30:25.423Z,10.40
2018-12-09T21:35:29.604Z,11.17
2018-12-09T21:40:34.165Z,12.33
2018-12-09T21:45:39.267Z,10.90
2018-12-09T21:50:44.495Z,8.77
2018-12-09T21:55:49.118Z,14.47
2018-12-09T22:01:06.229Z,12.67
2018-12-09T22:06:10.734Z,15.72
2018-12-09T22:11:15.256Z,11.48
2018-12-09T22:16:21.415Z,16.63
2018-12-09T22:21:26.009Z,13.33
2018-12-09T22:26:30.900Z,13.60
2018-12-09T22:31:34.997Z,10.00
2018-12-09T22:36:39.135Z,11.57
2018-12-09T22:41:44.154Z,8.87
2018-12-09T22:46:48.886Z,18.53
2018-12-09T22:51:53.416Z,7.70
2018-12-09T22:56:57.531Z,15.27
2018-12-09T23:02:11.486Z,11.67
2018-12-09T23:07:21.091Z,18.67
2018-12-09T23:12:25.960Z,12.40
2018-12-09T23:17:30.509Z,10.67
2018-12-09T23:22:34.649Z,12.53
2018-12-09T23:27:39.736Z,7.87
2018-12-09T23:32:44.247Z,7.40
2018-12-09T23:37:48.928Z,8.07
2018-12-09T23:42:53.790Z,10.20
2018-12-09T23:47:58.304Z,10.13
2018-12-09T23:53:03.244Z,9.17
2018-12-09T23:58:08.006Z,10.40
